Terminal Aerodrome Forecast
Issued by NWS

Home | Current Version | Previous Version | Text Only | Print | Product List | Glossary On
Versions: 1 2 3 4 5 6 7 8 9 10 11 12 13 14 15 16 17
000
FTUS41 KPBZ 251720
TAFLBE
TAF
KLBE 251720Z 2518/2618 00000KT P6SM VCSH OVC025
     FM252100 31009KT 6SM -RA OVC015
     FM252200 31009KT P6SM VCSH OVC008
     FM260200 30008KT P6SM BKN015
     FM261300 28007KT P6SM BKN025
     FM261700 29006KT P6SM BKN050=

USA.gov is the U.S. government's official web portal to all federal, state and local government web resources and services.